createdAt,value
2022-12-08T00:01:16.468Z,86.96
2022-12-08T00:04:18.066Z,85.67
2022-12-08T00:07:38.620Z,86.19
2022-12-08T00:10:50.788Z,85.25
2022-12-08T00:13:52.502Z,84.96
2022-12-08T00:16:54.947Z,85.77
2022-12-08T00:19:56.714Z,86.30
2022-12-08T00:22:58.360Z,86.43
2022-12-08T00:26:04.957Z,86.22
2022-12-08T00:29:06.903Z,86.54
2022-12-08T00:32:08.619Z,87.50
2022-12-08T00:35:10.236Z,85.97
2022-12-08T00:38:11.881Z,84.96
2022-12-08T00:41:40.775Z,85.98
2022-12-08T00:44:44.085Z,86.85
2022-12-08T00:47:45.703Z,87.27
2022-12-08T00:50:47.354Z,86.84
2022-12-08T00:53:48.964Z,86.59
2022-12-08T00:56:50.724Z,86.23
2022-12-08T00:59:52.354Z,85.81
2022-12-08T01:02:53.995Z,86.04
2022-12-08T01:05:55.816Z,86.06
2022-12-08T01:08:58.133Z,86.19
2022-12-08T01:11:59.882Z,86.50
2022-12-08T01:15:02.648Z,86.44
2022-12-08T01:18:04.929Z,86.32
2022-12-08T01:21:08.378Z,86.82
2022-12-08T01:24:20.975Z,85.52
2022-12-08T01:27:22.675Z,85.57
2022-12-08T01:30:24.508Z,85.94
2022-12-08T01:33:26.902Z,85.59
2022-12-08T01:36:31.153Z,85.24
2022-12-08T01:39:32.858Z,84.62
2022-12-08T01:42:34.605Z,86.31
2022-12-08T01:45:36.185Z,85.27
2022-12-08T01:48:37.843Z,86.19
2022-12-08T01:51:46.112Z,84.73
2022-12-08T01:55:12.876Z,83.74
2022-12-08T01:58:20.922Z,85.24
2022-12-08T02:01:23.298Z,84.85
2022-12-08T02:04:25.012Z,84.45
2022-12-08T02:07:27.367Z,85.34
2022-12-08T02:10:32.844Z,85.27
2022-12-08T02:13:34.638Z,85.04
2022-12-08T02:16:48.756Z,84.17
2022-12-08T02:19:53.332Z,84.93
2022-12-08T02:23:11.446Z,84.44
2022-12-08T02:26:34.782Z,84.95
2022-12-08T02:30:14.093Z,85.34
2022-12-08T02:33:39.470Z,84.31
2022-12-08T02:36:54.073Z,84.58
2022-12-08T02:40:11.603Z,84.94
2022-12-08T02:43:20.313Z,84.28
2022-12-08T02:46:27.269Z,84.71
2022-12-08T02:49:31.194Z,84.91
2022-12-08T02:52:32.785Z,85.53
2022-12-08T02:55:44.512Z,85.48
2022-12-08T02:59:10.857Z,84.31
2022-12-08T03:02:30.863Z,84.49
2022-12-08T03:05:46.878Z,85.71
2022-12-08T03:08:59.655Z,85.79
2022-12-08T03:12:17.657Z,83.84
2022-12-08T03:15:21.689Z,83.19
2022-12-08T03:18:28.954Z,83.09
2022-12-08T03:21:33.376Z,83.18
2022-12-08T03:24:38.683Z,83.31
2022-12-08T03:27:41.130Z,82.73
2022-12-08T03:30:47.377Z,83.13
2022-12-08T03:33:52.537Z,83.03
2022-12-08T03:36:54.789Z,82.72
2022-12-08T03:39:56.951Z,83.06
2022-12-08T03:42:58.851Z,82.88
2022-12-08T03:46:00.511Z,82.97
2022-12-08T03:49:02.582Z,83.07
2022-12-08T03:52:04.418Z,83.08
2022-12-08T03:55:06.691Z,83.38
2022-12-08T03:58:08.384Z,83.28
2022-12-08T04:01:10.039Z,83.58
2022-12-08T04:04:11.782Z,83.16
2022-12-08T04:07:13.397Z,83.52
2022-12-08T04:10:15.872Z,82.89
2022-12-08T04:13:17.522Z,83.17
2022-12-08T04:16:21.975Z,84.28
2022-12-08T04:19:23.832Z,84.65
2022-12-08T04:22:25.634Z,84.74
2022-12-08T04:25:27.849Z,84.77
2022-12-08T04:28:29.794Z,84.72
2022-12-08T04:31:31.499Z,85.32
2022-12-08T04:34:33.212Z,84.30
2022-12-08T04:37:34.960Z,83.73
2022-12-08T04:40:36.915Z,83.31
2022-12-08T04:43:38.632Z,83.61
2022-12-08T04:46:43.404Z,82.74
2022-12-08T04:49:45.467Z,83.34
2022-12-08T04:52:47.240Z,84.18
2022-12-08T04:55:49.715Z,82.83
2022-12-08T04:58:51.338Z,83.68
2022-12-08T05:01:53.148Z,82.47
2022-12-08T05:04:54.896Z,82.74
2022-12-08T05:07:56.807Z,81.90
2022-12-08T05:11:06.980Z,81.68
2022-12-08T05:14:13.379Z,81.47
2022-12-08T05:17:16.044Z,81.20
2022-12-08T05:20:17.834Z,80.95
2022-12-08T05:23:19.462Z,81.38
2022-12-08T05:26:21.102Z,81.25
2022-12-08T05:29:22.769Z,81.17
2022-12-08T05:32:24.442Z,81.51
2022-12-08T05:35:26.043Z,80.61
2022-12-08T05:38:27.657Z,81.40
2022-12-08T05:41:29.350Z,80.63
2022-12-08T05:44:30.947Z,80.90
2022-12-08T05:47:36.003Z,81.04
2022-12-08T05:50:38.194Z,80.54
2022-12-08T05:53:39.996Z,80.73
2022-12-08T05:56:42.060Z,80.33
2022-12-08T05:59:44.268Z,80.00
2022-12-08T06:02:46.070Z,79.98
2022-12-08T06:05:48.097Z,79.56
2022-12-08T06:08:49.960Z,79.67
2022-12-08T06:11:51.654Z,79.45
2022-12-08T06:14:53.288Z,79.81
2022-12-08T06:17:55.005Z,78.83
2022-12-08T06:21:08.075Z,78.98
2022-12-08T06:24:09.735Z,79.13
2022-12-08T06:27:11.462Z,78.71
2022-12-08T06:30:19.030Z,78.91
2022-12-08T06:33:22.196Z,79.47
2022-12-08T06:36:27.053Z,79.59
2022-12-08T06:39:28.788Z,79.43
2022-12-08T06:42:44.503Z,79.20
2022-12-08T06:45:49.804Z,79.30
2022-12-08T06:48:54.309Z,79.42
2022-12-08T06:51:55.940Z,78.97
2022-12-08T06:54:57.825Z,79.06
2022-12-08T06:57:59.605Z,78.48
2022-12-08T07:01:09.565Z,78.29
2022-12-08T07:04:12.187Z,78.28
2022-12-08T07:07:13.823Z,78.28
2022-12-08T07:10:15.498Z,77.47
2022-12-08T07:13:17.147Z,77.31
2022-12-08T07:16:19.131Z,77.61
2022-12-08T07:19:20.877Z,78.00
2022-12-08T07:22:22.472Z,77.71
2022-12-08T07:25:24.126Z,77.70
2022-12-08T07:28:25.970Z,77.45
2022-12-08T07:31:28.914Z,77.69
2022-12-08T07:34:30.686Z,77.83
2022-12-08T07:37:36.151Z,77.60
2022-12-08T07:40:39.150Z,77.37
2022-12-08T07:43:42.007Z,77.52
2022-12-08T07:46:43.689Z,77.16
2022-12-08T07:49:45.474Z,76.75
2022-12-08T07:52:47.143Z,77.11
2022-12-08T07:55:48.943Z,76.76
2022-12-08T07:58:51.097Z,76.79
2022-12-08T08:02:19.553Z,76.35
2022-12-08T08:05:16.839Z,75.73
2022-12-08T08:08:18.914Z,76.39
2022-12-08T08:11:21.895Z,76.10
2022-12-08T08:14:23.654Z,75.86
2022-12-08T08:17:25.387Z,75.31
2022-12-08T08:20:27.146Z,75.26
2022-12-08T08:23:28.904Z,75.59
2022-12-08T08:26:30.608Z,75.60
2022-12-08T08:29:32.282Z,75.20
2022-12-08T08:32:34.909Z,75.20
2022-12-08T08:35:36.568Z,74.15
2022-12-08T08:38:43.181Z,73.88
2022-12-08T08:41:44.757Z,74.10
2022-12-08T08:44:46.614Z,72.87
2022-12-08T08:47:48.369Z,72.56
2022-12-08T08:50:50.027Z,73.53
2022-12-08T08:53:52.083Z,74.28
2022-12-08T08:56:53.742Z,73.50
2022-12-08T08:59:55.489Z,72.79
2022-12-08T09:02:57.174Z,72.16
2022-12-08T09:06:26.551Z,70.89
2022-12-08T09:09:35.337Z,70.54
2022-12-08T09:12:37.006Z,68.35
2022-12-08T09:15:39.020Z,68.36
2022-12-08T09:18:41.717Z,68.30
2022-12-08T09:21:43.616Z,66.42
2022-12-08T09:25:13.826Z,65.70
2022-12-08T09:28:23.436Z,65.36
2022-12-08T09:31:54.982Z,63.38
2022-12-08T09:35:39.271Z,58.92
2022-12-08T09:39:07.352Z,56.78
2022-12-08T09:43:09.134Z,55.89
2022-12-08T09:46:19.427Z,56.98
2022-12-08T09:49:28.650Z,55.87
2022-12-08T09:52:37.614Z,54.54
2022-12-08T09:56:02.048Z,53.70
2022-12-08T09:59:06.298Z,49.95
2022-12-08T10:02:29.646Z,47.96
2022-12-08T10:05:37.719Z,47.63
2022-12-08T10:08:55.679Z,46.40
2022-12-08T10:12:04.225Z,45.41
2022-12-08T10:15:45.599Z,43.81
2022-12-08T10:18:57.583Z,44.90
2022-12-08T10:21:59.600Z,45.18
2022-12-08T10:25:11.112Z,44.52
2022-12-08T10:28:13.370Z,42.49
2022-12-08T10:31:25.536Z,41.35
2022-12-08T10:34:27.449Z,39.69
2022-12-08T10:37:29.542Z,39.99
2022-12-08T10:40:42.201Z,40.98
2022-12-08T10:43:51.197Z,41.94
2022-12-08T10:46:52.899Z,40.59
2022-12-08T10:50:28.940Z,41.17
2022-12-08T10:57:55.024Z,40.98
2022-12-08T11:01:19.887Z,39.11
2022-12-08T11:04:38.141Z,38.49
2022-12-08T11:07:47.424Z,36.85
2022-12-08T11:10:49.732Z,35.19
2022-12-08T11:13:51.914Z,36.02
2022-12-08T11:17:06.226Z,35.59
2022-12-08T11:20:11.469Z,34.97
2022-12-08T11:23:21.514Z,33.66
2022-12-08T11:26:35.258Z,33.85
2022-12-08T11:29:37.143Z,33.45
2022-12-08T11:32:43.043Z,33.63
2022-12-08T11:35:49.355Z,33.22
2022-12-08T11:38:55.566Z,32.80
2022-12-08T11:41:58.789Z,32.73
2022-12-08T11:45:07.479Z,32.97
2022-12-08T11:48:43.234Z,31.32
2022-12-08T11:52:26.897Z,33.84
2022-12-08T11:55:42.707Z,38.65
2022-12-08T11:58:57.814Z,42.85
2022-12-08T12:02:04.315Z,45.97
2022-12-08T12:06:08.736Z,49.15
2022-12-08T12:09:13.687Z,51.16
2022-12-08T12:12:39.481Z,53.13
2022-12-08T12:16:09.819Z,55.37
2022-12-08T12:19:17.917Z,57.31
2022-12-08T12:22:36.570Z,57.88
2022-12-08T12:25:59.203Z,59.05
2022-12-08T12:29:23.986Z,58.86
2022-12-08T12:32:39.787Z,59.45
2022-12-08T12:35:44.931Z,58.69
2022-12-08T12:39:01.396Z,59.88
2022-12-08T12:42:05.629Z,60.03
2022-12-08T12:45:21.932Z,60.79
2022-12-08T12:48:25.811Z,60.95
2022-12-08T12:51:39.660Z,61.38
2022-12-08T12:54:50.373Z,61.59
2022-12-08T12:57:57.695Z,61.40
2022-12-08T13:01:11.575Z,62.88
2022-12-08T13:04:13.980Z,62.62
2022-12-08T13:07:26.009Z,63.46
2022-12-08T13:10:32.817Z,63.39
2022-12-08T13:13:35.408Z,64.33
2022-12-08T13:16:40.325Z,63.66
2022-12-08T13:19:45.348Z,65.38
2022-12-08T13:22:54.843Z,65.76
2022-12-08T13:26:17.547Z,65.27
2022-12-08T13:29:24.642Z,64.96
2022-12-08T13:32:30.651Z,64.81
2022-12-08T13:35:42.712Z,65.09
2022-12-08T13:38:46.643Z,65.32
2022-12-08T13:41:59.289Z,66.21
2022-12-08T13:45:39.643Z,66.14
2022-12-08T13:50:54.697Z,66.50
2022-12-08T13:59:36.150Z,66.97
2022-12-08T14:02:47.678Z,68.05
2022-12-08T14:06:18.297Z,68.43
2022-12-08T14:09:16.186Z,69.33
2022-12-08T14:12:24.846Z,69.29
2022-12-08T14:15:29.152Z,69.82
2022-12-08T14:18:32.947Z,70.30
2022-12-08T14:21:36.401Z,70.47
2022-12-08T14:24:39.582Z,69.63
2022-12-08T14:27:41.821Z,69.58
2022-12-08T14:30:43.628Z,70.03
2022-12-08T14:33:45.406Z,70.46
2022-12-08T14:36:47.257Z,69.80
2022-12-08T14:39:49.881Z,69.64
2022-12-08T14:43:05.682Z,70.02
2022-12-08T14:46:22.041Z,69.07
2022-12-08T14:49:38.178Z,69.08
2022-12-08T14:52:44.701Z,70.03
2022-12-08T14:55:48.292Z,69.80
2022-12-08T14:59:02.219Z,70.58
2022-12-08T15:02:16.140Z,70.65
2022-12-08T15:05:20.634Z,70.96
2022-12-08T15:08:22.707Z,71.06
2022-12-08T15:11:24.320Z,70.62
2022-12-08T15:14:53.473Z,71.01
2022-12-08T15:18:02.423Z,71.33
2022-12-08T15:21:06.792Z,71.92
2022-12-08T15:24:15.565Z,71.06
2022-12-08T15:27:22.962Z,71.26
2022-12-08T15:30:28.743Z,70.46
2022-12-08T15:33:30.375Z,68.67
2022-12-08T15:36:32.087Z,69.61
2022-12-08T15:39:37.725Z,69.20
2022-12-08T15:42:39.315Z,69.51
2022-12-08T15:45:50.541Z,68.29
2022-12-08T15:48:59.540Z,69.05
2022-12-08T15:52:11.307Z,69.16
2022-12-08T15:55:14.899Z,69.83
2022-12-08T16:01:44.495Z,69.59
2022-12-08T16:05:25.620Z,69.16
2022-12-08T16:08:38.250Z,69.76
2022-12-08T16:12:06.340Z,70.07
2022-12-08T16:18:35.983Z,71.51
2022-12-08T16:22:29.726Z,71.47
2022-12-08T16:25:14.714Z,71.96
2022-12-08T16:31:41.689Z,71.49
2022-12-08T16:34:43.799Z,70.80
2022-12-08T16:37:45.770Z,71.14
2022-12-08T16:41:06.612Z,70.91
2022-12-08T16:44:08.263Z,70.65
2022-12-08T16:47:10.738Z,70.94
2022-12-08T16:50:21.435Z,70.87
2022-12-08T16:53:23.583Z,71.16
2022-12-08T16:56:32.218Z,71.52
2022-12-08T16:59:34.646Z,71.58
2022-12-08T17:02:36.494Z,72.21
2022-12-08T17:05:40.835Z,72.52
2022-12-08T17:08:43.413Z,72.51
2022-12-08T17:11:45.513Z,72.44
2022-12-08T17:14:47.193Z,72.49
2022-12-08T17:17:49.159Z,72.74
2022-12-08T17:20:50.969Z,72.83
2022-12-08T17:23:52.758Z,72.80
2022-12-08T17:26:58.658Z,73.06
2022-12-08T17:30:00.376Z,73.46
2022-12-08T17:33:02.064Z,73.23
2022-12-08T17:36:03.968Z,74.32
2022-12-08T17:39:12.042Z,74.88
2022-12-08T17:42:16.553Z,75.62
2022-12-08T17:45:18.460Z,74.14
2022-12-08T17:48:20.378Z,73.78
2022-12-08T17:51:22.579Z,74.01
2022-12-08T17:54:25.698Z,73.47
2022-12-08T17:57:27.280Z,73.84
2022-12-08T18:00:29.244Z,74.02
2022-12-08T18:03:31.075Z,73.73
2022-12-08T18:06:33.774Z,74.53
2022-12-08T18:09:35.670Z,75.05
2022-12-08T18:12:37.608Z,75.06
2022-12-08T18:15:39.765Z,75.29
2022-12-08T18:18:41.747Z,75.36
2022-12-08T18:21:43.671Z,75.41
2022-12-08T18:24:47.572Z,74.99
2022-12-08T18:27:49.452Z,75.63
2022-12-08T18:30:51.262Z,75.90
2022-12-08T18:33:53.943Z,75.76
2022-12-08T18:36:55.543Z,75.96
2022-12-08T18:39:57.235Z,76.81
2022-12-08T18:42:59.208Z,76.23
2022-12-08T18:46:02.340Z,76.26
2022-12-08T18:49:04.521Z,76.51
2022-12-08T18:52:06.355Z,76.05
2022-12-08T18:55:08.952Z,76.64
2022-12-08T18:58:14.810Z,76.86
2022-12-08T19:01:16.969Z,77.21
2022-12-08T19:04:38.548Z,77.31
2022-12-08T19:07:42.423Z,76.54
2022-12-08T19:10:44.350Z,76.41
2022-12-08T19:13:46.541Z,76.81
2022-12-08T19:16:48.325Z,76.87
2022-12-08T19:19:50.128Z,77.11
2022-12-08T19:22:52.007Z,77.03
2022-12-08T19:25:53.672Z,77.04
2022-12-08T19:28:56.097Z,77.20
2022-12-08T19:31:58.145Z,77.72
2022-12-08T19:35:00.335Z,77.06
2022-12-08T19:38:02.173Z,76.92
2022-12-08T19:41:23.998Z,78.19
2022-12-08T19:44:46.581Z,77.93
2022-12-08T19:47:48.670Z,78.01
2022-12-08T19:50:50.695Z,77.76
2022-12-08T19:53:52.664Z,78.54
2022-12-08T19:56:54.341Z,78.71
2022-12-08T19:59:56.514Z,78.02
2022-12-08T20:02:59.834Z,78.35
2022-12-08T20:06:01.701Z,78.74
2022-12-08T20:09:03.606Z,79.48
2022-12-08T20:12:05.847Z,79.65
2022-12-08T20:15:10.139Z,79.60
2022-12-08T20:18:13.676Z,80.41
2022-12-08T20:21:16.452Z,80.12
2022-12-08T20:24:18.387Z,79.82
2022-12-08T20:27:20.294Z,79.56
2022-12-08T20:30:22.340Z,79.06
2022-12-08T20:33:24.266Z,79.21
2022-12-08T20:36:26.382Z,80.11
2022-12-08T20:39:28.326Z,80.15
2022-12-08T20:42:30.086Z,79.87
2022-12-08T20:45:31.956Z,80.75
2022-12-08T20:48:34.310Z,79.85
2022-12-08T20:51:39.213Z,79.45
2022-12-08T20:54:41.390Z,79.36
2022-12-08T20:57:43.340Z,79.13
2022-12-08T21:00:45.053Z,80.26
2022-12-08T21:03:48.670Z,80.05
2022-12-08T21:06:50.410Z,80.29
2022-12-08T21:09:52.648Z,81.01
2022-12-08T21:12:54.722Z,81.96
2022-12-08T21:15:56.848Z,82.54
2022-12-08T21:18:58.862Z,82.37
2022-12-08T21:22:00.711Z,83.31
2022-12-08T21:25:02.368Z,83.27
2022-12-08T21:28:04.078Z,84.39
2022-12-08T21:31:10.775Z,83.91
2022-12-08T21:34:13.096Z,83.91
2022-12-08T21:37:14.909Z,83.74
2022-12-08T21:40:16.735Z,84.21
2022-12-08T21:43:18.832Z,84.13
2022-12-08T21:46:21.271Z,84.99
2022-12-08T21:49:23.217Z,84.71
2022-12-08T21:52:25.079Z,84.62
2022-12-08T21:55:26.925Z,84.81
2022-12-08T21:58:28.619Z,85.55
2022-12-08T22:01:30.563Z,84.82
2022-12-08T22:04:32.553Z,85.10
2022-12-08T22:07:38.328Z,84.68
2022-12-08T22:10:47.010Z,84.26
2022-12-08T22:13:48.920Z,84.63
2022-12-08T22:16:50.721Z,84.92
2022-12-08T22:19:52.345Z,85.09
2022-12-08T22:22:54.160Z,85.33
2022-12-08T22:26:00.599Z,84.86
2022-12-08T22:29:02.492Z,85.13
2022-12-08T22:32:04.512Z,85.35
2022-12-08T22:35:06.577Z,86.05
2022-12-08T22:38:08.352Z,85.61
2022-12-08T22:41:10.123Z,85.60
2022-12-08T22:44:14.080Z,85.74
2022-12-08T22:47:15.735Z,86.63
2022-12-08T22:50:18.047Z,87.63
2022-12-08T22:53:20.080Z,87.96
2022-12-08T22:56:21.989Z,88.15
2022-12-08T22:59:23.903Z,87.59
2022-12-08T23:02:25.557Z,88.23
2022-12-08T23:05:27.517Z,88.27
2022-12-08T23:08:29.484Z,88.17
2022-12-08T23:11:31.823Z,88.51
2022-12-08T23:14:33.474Z,88.59
2022-12-08T23:17:35.282Z,89.04
2022-12-08T23:20:36.980Z,90.07
2022-12-08T23:23:38.647Z,89.67
2022-12-08T23:26:40.257Z,89.62
2022-12-08T23:29:41.884Z,89.97
2022-12-08T23:32:43.652Z,90.02
2022-12-08T23:35:45.353Z,90.08
2022-12-08T23:38:47.285Z,89.81
2022-12-08T23:41:48.939Z,89.99
2022-12-08T23:44:50.491Z,90.04
2022-12-08T23:47:52.536Z,90.61
2022-12-08T23:50:54.530Z,90.75
2022-12-08T23:53:56.248Z,91.62
2022-12-08T23:56:57.879Z,91.43
2022-12-08T23:59:59.757Z,91.59
